createdAt,value
2022-09-23T00:02:06.541Z,2.90
2022-09-23T00:04:33.143Z,3.95
2022-09-23T00:06:59.780Z,3.25
2022-09-23T00:09:26.407Z,4.20
2022-09-23T00:11:52.927Z,3.25
2022-09-23T00:14:19.436Z,3.83
2022-09-23T00:16:45.986Z,3.30
2022-09-23T00:19:12.860Z,3.42
2022-09-23T00:21:39.363Z,3.40
2022-09-23T00:24:08.036Z,3.92
2022-09-23T00:26:34.720Z,3.45
2022-09-23T00:29:01.225Z,3.35
2022-09-23T00:31:28.169Z,3.55
2022-09-23T00:34:00.311Z,3.45
2022-09-23T00:36:28.777Z,3.35
2022-09-23T00:38:55.740Z,3.45
2022-09-23T00:41:22.769Z,3.15
2022-09-23T00:43:52.853Z,3.60
2022-09-23T00:46:28.181Z,3.42
2022-09-23T00:49:14.025Z,3.08
2022-09-23T00:51:46.683Z,3.22
2022-09-23T00:54:13.459Z,3.13
2022-09-23T00:56:40.371Z,3.80
2022-09-23T00:59:11.213Z,3.78
2022-09-23T01:01:38.303Z,3.70
2022-09-23T01:04:06.835Z,3.80
2022-09-23T01:06:33.467Z,3.58
2022-09-23T01:08:59.986Z,4.20
2022-09-23T01:11:44.732Z,3.92
2022-09-23T01:14:23.757Z,3.88
2022-09-23T01:17:04.518Z,4.38
2022-09-23T01:20:00.160Z,5.05
2022-09-23T01:22:44.549Z,5.10
2022-09-23T01:25:40.767Z,4.80
2022-09-23T01:28:20.838Z,4.93
2022-09-23T01:31:09.265Z,4.85
2022-09-23T01:33:46.132Z,4.32
2022-09-23T01:36:23.676Z,4.97
2022-09-23T01:39:05.583Z,4.80
2022-09-23T01:41:51.689Z,4.18
2022-09-23T01:44:49.911Z,4.35
2022-09-23T01:47:20.691Z,3.65
2022-09-23T01:49:57.631Z,4.18
2022-09-23T01:52:43.069Z,3.90
2022-09-23T01:55:20.921Z,4.38
2022-09-23T01:57:55.654Z,3.92
2022-09-23T02:00:23.305Z,3.85
2022-09-23T02:02:53.983Z,4.22
2022-09-23T02:05:30.483Z,3.65
2022-09-23T02:08:16.011Z,3.78
2022-09-23T02:10:47.121Z,3.92
2022-09-23T02:13:34.268Z,3.55
2022-09-23T02:16:03.912Z,3.42
2022-09-23T02:18:58.256Z,3.80
2022-09-23T02:21:29.356Z,3.60
2022-09-23T02:24:02.735Z,3.35
2022-09-23T02:26:35.997Z,3.53
2022-09-23T02:29:19.023Z,3.80
2022-09-23T02:32:14.563Z,4.13
2022-09-23T02:34:41.144Z,4.13
2022-09-23T02:37:37.174Z,3.45
2022-09-23T02:40:31.032Z,3.75
2022-09-23T02:43:12.619Z,4.05
2022-09-23T02:45:39.341Z,4.00
2022-09-23T02:48:12.027Z,3.55
2022-09-23T02:50:39.272Z,4.05
2022-09-23T02:53:06.527Z,4.60
2022-09-23T02:55:33.203Z,4.35
2022-09-23T02:58:01.448Z,4.32
2022-09-23T03:00:36.196Z,4.22
2022-09-23T03:03:15.753Z,4.30
2022-09-23T03:05:52.563Z,5.05
2022-09-23T03:08:30.099Z,4.22
2022-09-23T03:11:04.211Z,4.22
2022-09-23T03:13:55.955Z,3.95
2022-09-23T03:16:43.570Z,4.20
2022-09-23T03:19:28.543Z,4.35
2022-09-23T03:22:01.276Z,3.83
2022-09-23T03:24:31.247Z,3.88
2022-09-23T03:27:01.261Z,4.00
2022-09-23T03:29:29.068Z,4.93
2022-09-23T03:31:56.800Z,4.18
2022-09-23T03:34:27.491Z,4.53
2022-09-23T03:37:08.628Z,3.88
2022-09-23T03:40:10.017Z,3.80
2022-09-23T03:42:37.626Z,3.95
2022-09-23T03:45:08.288Z,4.85
2022-09-23T03:47:35.426Z,4.40
2022-09-23T03:50:02.002Z,3.92
2022-09-23T03:52:28.547Z,4.10
2022-09-23T03:54:55.118Z,4.68
2022-09-23T03:57:23.201Z,4.13
2022-09-23T03:59:50.611Z,4.07
2022-09-23T04:02:18.458Z,4.03
2022-09-23T04:04:45.655Z,4.15
2022-09-23T04:07:13.435Z,3.92
2022-09-23T04:09:40.328Z,3.80
2022-09-23T04:12:07.454Z,3.53
2022-09-23T04:14:34.104Z,4.00
2022-09-23T04:17:00.660Z,3.63
2022-09-23T04:19:27.620Z,3.70
2022-09-23T04:21:54.538Z,3.15
2022-09-23T04:24:21.725Z,3.60
2022-09-23T04:26:52.351Z,3.90
2022-09-23T04:29:19.725Z,3.65
2022-09-23T04:31:46.365Z,3.67
2022-09-23T04:34:13.235Z,3.40
2022-09-23T04:36:39.826Z,3.25
2022-09-23T04:39:06.733Z,3.33
2022-09-23T04:41:33.534Z,3.75
2022-09-23T04:44:00.118Z,3.38
2022-09-23T04:46:26.773Z,3.45
2022-09-23T04:48:53.368Z,3.45
2022-09-23T04:51:21.604Z,3.80
2022-09-23T04:53:49.686Z,3.42
2022-09-23T04:56:18.891Z,3.33
2022-09-23T04:58:46.116Z,4.53
2022-09-23T05:01:24.210Z,8.70
2022-09-23T05:03:53.636Z,8.52
2022-09-23T05:06:21.272Z,7.03
2022-09-23T05:08:50.209Z,3.88
2022-09-23T05:11:18.621Z,3.97
2022-09-23T05:13:49.121Z,3.78
2022-09-23T05:16:16.287Z,3.65
2022-09-23T05:18:44.069Z,3.97
2022-09-23T05:21:16.172Z,3.75
2022-09-23T05:23:43.223Z,4.00
2022-09-23T05:26:11.678Z,3.90
2022-09-23T05:28:39.379Z,4.05
2022-09-23T05:31:20.240Z,4.00
2022-09-23T05:33:51.673Z,3.95
2022-09-23T05:36:18.937Z,3.35
2022-09-23T05:38:45.549Z,3.83
2022-09-23T05:41:13.446Z,3.63
2022-09-23T05:43:40.948Z,3.80
2022-09-23T05:46:15.917Z,3.85
2022-09-23T05:48:44.107Z,4.40
2022-09-23T05:53:46.847Z,3.50
2022-09-23T05:56:17.703Z,3.92
2022-09-23T05:58:44.617Z,3.70
2022-09-23T06:01:17.873Z,3.78
2022-09-23T06:03:55.349Z,4.32
2022-09-23T06:06:39.760Z,4.70
2022-09-23T06:09:07.854Z,4.05
2022-09-23T06:11:35.322Z,4.40
2022-09-23T06:14:02.550Z,4.30
2022-09-23T06:16:31.747Z,5.50
2022-09-23T06:19:05.034Z,4.25
2022-09-23T06:21:33.236Z,4.50
2022-09-23T06:24:00.585Z,4.00
2022-09-23T06:26:28.399Z,4.10
2022-09-23T06:28:55.012Z,4.00
2022-09-23T06:31:21.539Z,3.50
2022-09-23T06:33:49.993Z,4.10
2022-09-23T06:36:30.978Z,4.03
2022-09-23T06:39:03.760Z,3.55
2022-09-23T06:41:30.515Z,3.80
2022-09-23T06:43:58.010Z,3.60
2022-09-23T06:46:24.915Z,3.83
2022-09-23T06:48:51.761Z,3.58
2022-09-23T06:51:21.699Z,3.92
2022-09-23T06:53:49.098Z,3.92
2022-09-23T06:56:17.270Z,3.97
2022-09-23T06:58:43.933Z,3.97
2022-09-23T07:01:13.033Z,3.63
2022-09-23T07:03:39.719Z,4.00
2022-09-23T07:06:06.574Z,3.80
2022-09-23T07:08:34.299Z,3.60
2022-09-23T07:11:03.467Z,3.95
2022-09-23T07:13:30.523Z,3.42
2022-09-23T07:15:58.888Z,3.70
2022-09-23T07:18:26.801Z,3.40
2022-09-23T07:20:53.727Z,4.00
2022-09-23T07:23:20.720Z,3.78
2022-09-23T07:25:49.435Z,4.18
2022-09-23T07:28:16.065Z,3.50
2022-09-23T07:30:55.699Z,3.55
2022-09-23T07:33:32.329Z,3.72
2022-09-23T07:35:59.601Z,3.25
2022-09-23T07:38:29.939Z,3.47
2022-09-23T07:41:05.020Z,3.72
2022-09-23T07:43:32.504Z,3.58
2022-09-23T07:46:08.265Z,3.30
2022-09-23T07:48:35.998Z,3.35
2022-09-23T07:51:20.845Z,3.20
2022-09-23T07:53:49.114Z,3.53
2022-09-23T07:56:17.221Z,3.10
2022-09-23T07:58:43.791Z,2.78
2022-09-23T08:01:12.008Z,2.92
2022-09-23T08:03:39.377Z,2.97
2022-09-23T08:06:11.992Z,3.20
2022-09-23T08:08:40.446Z,2.85
2022-09-23T08:11:08.628Z,3.10
2022-09-23T08:13:35.158Z,2.90
2022-09-23T08:16:02.109Z,3.20
2022-09-23T08:18:28.753Z,3.10
2022-09-23T08:20:55.319Z,2.65
2022-09-23T08:23:21.981Z,3.15
2022-09-23T08:25:49.028Z,2.70
2022-09-23T08:28:18.852Z,3.25
2022-09-23T08:30:48.593Z,3.00
2022-09-23T08:33:19.631Z,3.20
2022-09-23T08:35:49.479Z,2.85
2022-09-23T08:38:16.078Z,2.92
2022-09-23T08:40:44.560Z,3.30
2022-09-23T08:43:29.010Z,3.65
2022-09-23T08:45:58.354Z,2.83
2022-09-23T08:48:34.738Z,3.10
2022-09-23T08:51:06.628Z,2.60
2022-09-23T08:53:36.000Z,2.67
2022-09-23T08:56:11.615Z,2.53
2022-09-23T08:59:02.020Z,2.58
2022-09-23T09:01:32.315Z,2.58
2022-09-23T09:04:01.341Z,2.58
2022-09-23T09:06:52.411Z,2.30
2022-09-23T09:09:27.222Z,2.60
2022-09-23T09:12:03.079Z,2.50
2022-09-23T09:14:48.365Z,2.70
2022-09-23T09:17:35.561Z,3.33
2022-09-23T09:20:09.477Z,2.60
2022-09-23T09:22:44.154Z,2.40
2022-09-23T09:25:38.732Z,2.65
2022-09-23T09:28:35.728Z,2.80
2022-09-23T09:31:26.661Z,2.17
2022-09-23T09:34:04.525Z,2.47
2022-09-23T09:36:47.237Z,2.80
2022-09-23T09:39:14.756Z,2.30
2022-09-23T09:41:51.974Z,2.60
2022-09-23T09:44:26.761Z,2.55
2022-09-23T09:47:15.105Z,3.50
2022-09-23T09:50:07.892Z,2.83
2022-09-23T09:52:38.369Z,1.85
2022-09-23T09:55:13.757Z,2.65
2022-09-23T09:57:55.292Z,2.60
2022-09-23T10:00:21.822Z,2.47
2022-09-23T10:02:53.369Z,2.20
2022-09-23T10:05:25.931Z,2.33
2022-09-23T10:07:52.670Z,1.95
2022-09-23T10:10:39.524Z,2.42
2022-09-23T10:15:45.034Z,2.25
2022-09-23T10:18:19.593Z,1.73
2022-09-23T10:20:47.234Z,2.00
2022-09-23T10:23:21.217Z,2.38
2022-09-23T10:26:00.103Z,2.13
2022-09-23T10:28:50.496Z,2.10
2022-09-23T10:31:26.746Z,2.03
2022-09-23T10:34:00.306Z,2.47
2022-09-23T10:36:28.493Z,2.45
2022-09-23T10:39:22.557Z,4.82
2022-09-23T10:42:16.698Z,2.85
2022-09-23T10:45:43.297Z,2.40
2022-09-23T10:48:36.594Z,6.65
2022-09-23T10:51:14.561Z,3.58
2022-09-23T10:53:59.204Z,2.72
2022-09-23T10:56:33.942Z,2.30
2022-09-23T10:59:06.963Z,1.85
2022-09-23T11:02:03.285Z,2.00
2022-09-23T11:04:42.010Z,2.20
2022-09-23T11:07:44.863Z,2.05
2022-09-23T11:10:35.201Z,1.95
2022-09-23T11:13:36.112Z,2.10
2022-09-23T11:16:25.729Z,1.95
2022-09-23T11:19:04.858Z,2.63
2022-09-23T11:21:53.046Z,2.00
2022-09-23T11:24:50.978Z,2.17
2022-09-23T11:27:35.792Z,2.33
2022-09-23T11:30:21.161Z,2.45
2022-09-23T11:33:06.565Z,2.10
2022-09-23T11:35:45.828Z,2.28
2022-09-23T11:38:18.708Z,2.10
2022-09-23T11:40:46.633Z,1.63
2022-09-23T11:43:23.493Z,2.60
2022-09-23T11:46:09.863Z,2.10
2022-09-23T11:48:44.097Z,2.03
2022-09-23T11:53:57.435Z,1.95
2022-09-23T11:56:35.916Z,2.30
2022-09-23T11:59:32.267Z,1.63
2022-09-23T12:02:20.821Z,2.05
2022-09-23T12:05:08.960Z,2.10
2022-09-23T12:07:47.943Z,2.30
2022-09-23T12:10:15.675Z,2.38
2022-09-23T12:16:02.749Z,2.05
2022-09-23T12:19:13.993Z,2.20
2022-09-23T12:21:53.259Z,2.28
2022-09-23T12:24:38.680Z,2.47
2022-09-23T12:27:11.051Z,2.00
2022-09-23T12:29:38.602Z,2.40
2022-09-23T12:32:10.147Z,2.42
2022-09-23T12:34:49.995Z,2.72
2022-09-23T12:37:29.149Z,2.30
2022-09-23T12:40:00.046Z,1.92
2022-09-23T12:42:30.962Z,2.10
2022-09-23T12:45:38.616Z,2.97
2022-09-23T12:48:26.610Z,2.00
2022-09-23T12:51:16.388Z,2.45
2022-09-23T12:53:52.491Z,2.45
2022-09-23T12:56:24.791Z,2.28
2022-09-23T12:58:51.220Z,2.40
2022-09-23T13:01:20.165Z,2.75
2022-09-23T13:04:08.605Z,2.95
2022-09-23T13:06:40.880Z,2.67
2022-09-23T13:09:11.108Z,3.47
2022-09-23T13:11:40.417Z,2.88
2022-09-23T13:14:07.864Z,2.90
2022-09-23T13:16:38.130Z,2.95
2022-09-23T13:19:06.443Z,3.00
2022-09-23T13:21:45.871Z,2.83
2022-09-23T13:24:12.709Z,2.97
2022-09-23T13:26:43.689Z,2.63
2022-09-23T13:29:15.829Z,3.10
2022-09-23T13:31:42.720Z,3.10
2022-09-23T13:34:13.189Z,2.88
2022-09-23T13:36:44.665Z,3.30
2022-09-23T13:39:24.602Z,3.35
2022-09-23T13:41:53.662Z,3.22
2022-09-23T13:44:20.901Z,2.80
2022-09-23T13:46:50.503Z,2.70
2022-09-23T13:49:25.728Z,3.22
2022-09-23T13:51:54.136Z,3.10
2022-09-23T13:54:33.416Z,3.00
2022-09-23T13:57:00.347Z,3.13
2022-09-23T13:59:41.946Z,2.90
2022-09-23T14:02:13.933Z,3.30
2022-09-23T14:04:40.561Z,2.80
2022-09-23T14:07:08.296Z,2.95
2022-09-23T14:09:37.971Z,2.92
2022-09-23T14:12:05.734Z,2.70
2022-09-23T14:14:35.197Z,2.90
2022-09-23T14:17:02.558Z,2.90
2022-09-23T14:19:29.246Z,2.80
2022-09-23T14:21:56.617Z,3.28
2022-09-23T14:24:25.518Z,2.63
2022-09-23T14:26:53.807Z,2.97
2022-09-23T14:29:41.274Z,2.42
2022-09-23T14:32:17.942Z,2.63
2022-09-23T14:34:48.387Z,2.45
2022-09-23T14:37:44.020Z,2.70
2022-09-23T14:40:36.098Z,2.90
2022-09-23T14:43:05.607Z,2.70
2022-09-23T14:45:41.759Z,2.63
2022-09-23T14:48:21.381Z,2.88
2022-09-23T14:50:50.449Z,2.92
2022-09-23T14:53:16.936Z,2.53
2022-09-23T14:55:44.088Z,2.50
2022-09-23T14:58:15.936Z,2.95
2022-09-23T15:00:56.407Z,2.17
2022-09-23T15:03:23.158Z,2.85
2022-09-23T15:05:51.966Z,2.42
2022-09-23T15:08:23.687Z,2.58
2022-09-23T15:10:50.392Z,2.17
2022-09-23T15:13:19.383Z,2.28
2022-09-23T15:15:46.202Z,2.20
2022-09-23T15:18:18.715Z,3.03
2022-09-23T15:20:53.817Z,2.70
2022-09-23T15:23:39.116Z,2.35
2022-09-23T15:26:08.752Z,2.40
2022-09-23T15:28:35.264Z,3.03
2022-09-23T15:31:03.032Z,2.97
2022-09-23T15:33:29.900Z,2.70
2022-09-23T15:35:56.960Z,2.97
2022-09-23T15:38:23.836Z,2.58
2022-09-23T15:40:50.592Z,2.47
2022-09-23T15:43:21.187Z,2.40
2022-09-23T15:46:06.063Z,2.38
2022-09-23T15:48:42.263Z,2.30
2022-09-23T15:51:09.823Z,2.50
2022-09-23T15:53:38.141Z,2.25
2022-09-23T15:56:06.234Z,2.30
2022-09-23T15:58:33.120Z,2.20
2022-09-23T16:01:00.909Z,2.38
2022-09-23T16:03:30.472Z,2.00
2022-09-23T16:06:02.898Z,2.03
2022-09-23T16:08:30.070Z,2.20
2022-09-23T16:10:56.678Z,2.33
2022-09-23T16:13:23.284Z,2.15
2022-09-23T16:15:49.997Z,2.40
2022-09-23T16:18:16.639Z,2.17
2022-09-23T16:20:44.663Z,2.15
2022-09-23T16:23:35.866Z,2.00
2022-09-23T16:26:17.135Z,2.28
2022-09-23T16:28:44.792Z,2.22
2022-09-23T16:31:11.899Z,1.83
2022-09-23T16:33:38.706Z,2.28
2022-09-23T16:36:07.882Z,2.28
2022-09-23T16:38:34.482Z,2.05
2022-09-23T16:41:01.391Z,2.30
2022-09-23T16:43:32.694Z,2.15
2022-09-23T16:45:59.427Z,2.20
2022-09-23T16:48:26.054Z,1.85
2022-09-23T16:50:53.971Z,2.42
2022-09-23T16:53:20.593Z,1.85
2022-09-23T16:55:47.279Z,2.17
2022-09-23T16:58:13.825Z,2.13
2022-09-23T17:01:18.616Z,2.08
2022-09-23T17:03:47.172Z,2.22
2022-09-23T17:06:15.017Z,2.35
2022-09-23T17:08:42.702Z,2.72
2022-09-23T17:11:16.158Z,2.70
2022-09-23T17:13:43.934Z,3.00
2022-09-23T17:16:11.838Z,2.95
2022-09-23T17:18:41.334Z,3.20
2022-09-23T17:21:08.006Z,2.72
2022-09-23T17:23:35.905Z,2.63
2022-09-23T17:26:02.940Z,2.58
2022-09-23T17:28:29.553Z,2.47
2022-09-23T17:30:58.134Z,2.97
2022-09-23T17:33:29.349Z,3.08
2022-09-23T17:35:56.830Z,2.72
2022-09-23T17:38:28.618Z,2.80
2022-09-23T17:40:57.539Z,2.33
2022-09-23T17:43:25.044Z,2.72
2022-09-23T17:45:56.725Z,2.92
2022-09-23T17:48:25.379Z,2.40
2022-09-23T17:50:59.130Z,2.80
2022-09-23T17:53:26.183Z,2.88
2022-09-23T17:56:00.499Z,2.38
2022-09-23T17:58:28.721Z,3.25
2022-09-23T18:00:56.327Z,3.38
2022-09-23T18:03:24.401Z,3.10
2022-09-23T18:05:50.993Z,3.75
2022-09-23T18:08:17.967Z,2.90
2022-09-23T18:10:44.683Z,3.38
2022-09-23T18:13:11.211Z,2.45
2022-09-23T18:15:39.021Z,2.58
2022-09-23T18:20:32.722Z,3.13
2022-09-23T18:22:59.489Z,3.50
2022-09-23T18:25:39.072Z,4.03
2022-09-23T18:28:06.455Z,4.15
2022-09-23T18:33:01.553Z,3.95
2022-09-23T18:35:31.485Z,4.13
2022-09-23T18:37:58.096Z,4.15
2022-09-23T18:40:24.692Z,4.30
2022-09-23T18:42:51.528Z,4.70
2022-09-23T18:45:18.221Z,5.10
2022-09-23T18:48:07.674Z,4.95
2022-09-23T18:50:40.249Z,4.68
2022-09-23T18:53:07.881Z,4.97
2022-09-23T18:55:35.629Z,4.75
2022-09-23T19:00:29.146Z,4.38
2022-09-23T19:02:57.757Z,4.13
2022-09-23T19:05:24.357Z,4.90
2022-09-23T19:07:51.331Z,5.03
2022-09-23T19:10:19.152Z,4.97
2022-09-23T19:12:46.605Z,5.32
2022-09-23T19:15:14.191Z,5.68
2022-09-23T19:20:08.099Z,4.90
2022-09-23T19:22:34.805Z,5.05
2022-09-23T19:25:01.469Z,4.85
2022-09-23T19:27:28.684Z,5.10
2022-09-23T19:29:55.382Z,4.63
2022-09-23T19:32:27.005Z,5.05
2022-09-23T19:34:53.709Z,4.63
2022-09-23T19:37:20.272Z,5.20
2022-09-23T19:39:47.622Z,4.47
2022-09-23T19:42:14.363Z,4.38
2022-09-23T19:44:41.186Z,4.72
2022-09-23T19:47:10.216Z,4.75
2022-09-23T19:49:36.824Z,5.07
2022-09-23T19:52:03.367Z,4.88
2022-09-23T19:54:29.870Z,4.78
2022-09-23T19:56:56.474Z,5.05
2022-09-23T19:59:23.135Z,4.45
2022-09-23T20:01:49.759Z,4.97
2022-09-23T20:04:17.080Z,5.03
2022-09-23T20:06:45.850Z,4.68
2022-09-23T20:09:12.507Z,4.85
2022-09-23T20:11:40.581Z,4.70
2022-09-23T20:14:07.251Z,5.22
2022-09-23T20:16:35.783Z,4.93
2022-09-23T20:19:04.388Z,5.05
2022-09-23T20:21:31.431Z,5.20
2022-09-23T20:23:58.316Z,5.63
2022-09-23T20:26:43.580Z,5.65
2022-09-23T20:29:11.064Z,5.68
2022-09-23T20:31:40.331Z,5.68
2022-09-23T20:34:08.288Z,5.43
2022-09-23T20:39:06.223Z,5.93
2022-09-23T20:41:37.617Z,6.28
2022-09-23T20:44:07.350Z,5.82
2022-09-23T20:46:34.371Z,5.93
2022-09-23T20:49:01.987Z,5.80
2022-09-23T20:51:28.740Z,6.00
2022-09-23T20:53:55.804Z,6.07
2022-09-23T20:56:22.677Z,6.50
2022-09-23T20:58:50.685Z,6.90
2022-09-23T21:01:17.774Z,6.88
2022-09-23T21:03:46.216Z,6.30
2022-09-23T21:06:14.483Z,6.45
2022-09-23T21:08:42.195Z,6.30
2022-09-23T21:11:14.918Z,6.97
2022-09-23T21:13:47.060Z,6.32
2022-09-23T21:16:15.893Z,6.28
2022-09-23T21:18:43.460Z,6.03
2022-09-23T21:21:10.955Z,6.13
2022-09-23T21:23:39.543Z,6.25
2022-09-23T21:26:08.746Z,6.85
2022-09-23T21:28:42.790Z,6.45
2022-09-23T21:31:27.038Z,6.35
2022-09-23T21:34:12.599Z,7.07
2022-09-23T21:36:42.690Z,7.22
2022-09-23T21:39:10.511Z,6.60
2022-09-23T21:41:37.829Z,7.32
2022-09-23T21:44:05.260Z,7.20
2022-09-23T21:46:33.898Z,6.70
2022-09-23T21:49:02.168Z,6.75
2022-09-23T21:51:40.459Z,7.55
2022-09-23T21:54:11.895Z,6.47
2022-09-23T21:56:38.479Z,7.28
2022-09-23T21:59:05.714Z,7.30
2022-09-23T22:01:35.015Z,7.60
2022-09-23T22:04:08.432Z,6.50
2022-09-23T22:06:38.026Z,6.13
2022-09-23T22:09:08.882Z,6.22
2022-09-23T22:11:55.467Z,6.68
2022-09-23T22:14:26.385Z,6.70
2022-09-23T22:16:57.262Z,7.05
2022-09-23T22:19:32.801Z,6.13
2022-09-23T22:21:59.395Z,6.85
2022-09-23T22:24:25.997Z,6.90
2022-09-23T22:26:52.676Z,6.40
2022-09-23T22:29:38.202Z,6.45
2022-09-23T22:32:24.591Z,6.40
2022-09-23T22:34:52.721Z,6.47
2022-09-23T22:37:21.740Z,6.90
2022-09-23T22:39:48.403Z,6.68
2022-09-23T22:42:14.979Z,6.70
2022-09-23T22:44:41.580Z,6.93
2022-09-23T22:47:09.784Z,6.78
2022-09-23T22:49:36.647Z,7.03
2022-09-23T22:52:06.949Z,6.97
2022-09-23T22:54:34.596Z,6.80
2022-09-23T22:57:03.965Z,7.18
2022-09-23T22:59:30.689Z,7.68
2022-09-23T23:01:59.749Z,7.57
2022-09-23T23:04:26.992Z,7.45
2022-09-23T23:06:53.566Z,7.15
2022-09-23T23:09:20.162Z,7.15
2022-09-23T23:11:47.167Z,7.43
2022-09-23T23:14:16.447Z,7.05
2022-09-23T23:16:43.962Z,7.13
2022-09-23T23:19:13.401Z,6.57
2022-09-23T23:21:43.456Z,6.75
2022-09-23T23:24:23.986Z,7.40
2022-09-23T23:26:51.514Z,7.28
2022-09-23T23:29:19.943Z,7.38
2022-09-23T23:31:47.272Z,7.32
2022-09-23T23:34:16.673Z,7.57
2022-09-23T23:36:44.291Z,7.30
2022-09-23T23:39:11.400Z,7.38
2022-09-23T23:41:39.450Z,7.50
2022-09-23T23:44:07.770Z,7.22
2022-09-23T23:46:34.618Z,7.07
2022-09-23T23:49:01.295Z,6.93
2022-09-23T23:51:27.947Z,6.72
2022-09-23T23:53:55.364Z,7.10
2022-09-23T23:56:23.986Z,7.15
2022-09-23T23:58:58.267Z,7.07
